createdAt,value
2023-04-06T00:00:12.673Z,61.53
2023-04-06T00:02:39.472Z,60.44
2023-04-06T00:05:07.247Z,60.44
2023-04-06T00:07:34.820Z,60.71
2023-04-06T00:10:01.593Z,60.97
2023-04-06T00:12:28.244Z,60.09
2023-04-06T00:14:54.910Z,59.13
2023-04-06T00:17:21.767Z,58.37
2023-04-06T00:19:48.414Z,58.65
2023-04-06T00:22:15.124Z,59.30
2023-04-06T00:24:41.755Z,60.16
2023-04-06T00:27:08.384Z,60.07
2023-04-06T00:29:35.058Z,61.05
2023-04-06T00:32:01.731Z,61.18
2023-04-06T00:34:28.443Z,61.38
2023-04-06T00:36:55.283Z,61.96
2023-04-06T00:39:22.141Z,61.42
2023-04-06T00:41:52.603Z,60.79
2023-04-06T00:44:20.551Z,61.00
2023-04-06T00:46:47.384Z,62.14
2023-04-06T00:49:14.138Z,61.59
2023-04-06T00:51:40.935Z,61.78
2023-04-06T00:54:07.655Z,62.55
2023-04-06T00:56:36.408Z,62.73
2023-04-06T00:59:03.269Z,62.26
2023-04-06T01:01:33.245Z,62.73
2023-04-06T01:04:04.707Z,62.55
2023-04-06T01:06:38.401Z,62.87
2023-04-06T01:09:05.226Z,63.11
2023-04-06T01:11:32.394Z,62.46
2023-04-06T01:14:00.346Z,62.15
2023-04-06T01:17:01.647Z,62.19
2023-04-06T01:19:31.923Z,62.42
2023-04-06T01:21:58.871Z,62.27
2023-04-06T01:24:31.512Z,62.54
2023-04-06T01:27:03.993Z,62.75
2023-04-06T01:29:53.840Z,62.59
2023-04-06T01:32:55.645Z,62.72
2023-04-06T01:35:53.352Z,63.02
2023-04-06T01:38:21.128Z,63.89
2023-04-06T01:40:49.027Z,64.39
2023-04-06T01:43:18.185Z,64.05
2023-04-06T01:45:59.880Z,63.62
2023-04-06T01:48:32.827Z,63.48
2023-04-06T01:51:02.432Z,64.01
2023-04-06T01:53:32.595Z,64.61
2023-04-06T01:56:04.890Z,64.66
2023-04-06T01:58:35.542Z,64.67
2023-04-06T02:01:03.214Z,64.96
2023-04-06T02:03:37.039Z,65.10
2023-04-06T02:06:08.087Z,64.94
2023-04-06T02:08:39.136Z,64.87
2023-04-06T02:11:06.051Z,65.69
2023-04-06T02:13:41.435Z,65.38
2023-04-06T02:16:09.654Z,66.35
2023-04-06T02:18:36.856Z,66.20
2023-04-06T02:21:03.574Z,66.55
2023-04-06T02:23:30.192Z,65.86
2023-04-06T02:25:57.633Z,65.90
2023-04-06T02:28:24.321Z,66.32
2023-04-06T02:30:51.047Z,66.41
2023-04-06T02:33:18.750Z,66.32
2023-04-06T02:35:47.685Z,67.62
2023-04-06T02:38:14.297Z,67.01
2023-04-06T02:40:41.016Z,66.79
2023-04-06T02:43:18.071Z,67.79
2023-04-06T02:45:45.951Z,68.20
2023-04-06T02:48:13.509Z,68.84
2023-04-06T02:50:40.478Z,69.11
2023-04-06T02:53:08.320Z,70.51
2023-04-06T02:55:37.360Z,70.53
2023-04-06T02:58:04.223Z,70.69
2023-04-06T03:00:38.609Z,71.02
2023-04-06T03:03:05.693Z,71.61
2023-04-06T03:05:32.635Z,71.67
2023-04-06T03:07:59.406Z,71.85
2023-04-06T03:10:36.497Z,71.71
2023-04-06T03:13:03.128Z,72.54
2023-04-06T03:15:50.928Z,72.79
2023-04-06T03:18:22.998Z,73.76
2023-04-06T03:20:50.787Z,74.03
2023-04-06T03:23:21.769Z,73.98
2023-04-06T03:25:52.761Z,73.38
2023-04-06T03:28:21.004Z,73.29
2023-04-06T03:30:57.271Z,72.72
2023-04-06T03:33:42.613Z,72.40
2023-04-06T03:36:14.437Z,73.33
2023-04-06T03:38:43.413Z,74.44
2023-04-06T03:41:14.538Z,74.07
2023-04-06T03:43:45.774Z,73.26
2023-04-06T03:46:12.756Z,73.46
2023-04-06T03:48:39.501Z,74.01
2023-04-06T03:51:07.491Z,74.22
2023-04-06T03:53:34.254Z,73.65
2023-04-06T03:56:03.430Z,73.07
2023-04-06T03:58:31.856Z,73.28
2023-04-06T04:00:58.550Z,73.50
2023-04-06T04:03:27.111Z,73.12
2023-04-06T04:05:54.446Z,73.49
2023-04-06T04:08:21.447Z,74.10
2023-04-06T04:10:48.042Z,74.58
2023-04-06T04:13:14.688Z,73.90
2023-04-06T04:15:44.370Z,73.96
2023-04-06T04:18:11.081Z,74.22
2023-04-06T04:20:40.265Z,75.34
2023-04-06T04:23:08.066Z,74.03
2023-04-06T04:25:35.999Z,73.60
2023-04-06T04:28:03.355Z,75.06
2023-04-06T04:30:30.888Z,74.73
2023-04-06T04:32:57.644Z,74.91
2023-04-06T04:35:24.937Z,74.33
2023-04-06T04:37:51.716Z,74.72
2023-04-06T04:40:18.548Z,73.75
2023-04-06T04:42:52.171Z,73.52
2023-04-06T04:45:31.905Z,72.92
2023-04-06T04:48:05.927Z,72.47
2023-04-06T04:50:45.364Z,73.04
2023-04-06T04:53:13.473Z,72.77
2023-04-06T04:55:41.840Z,72.66
2023-04-06T04:58:10.576Z,73.62
2023-04-06T05:00:48.220Z,75.48
2023-04-06T05:03:23.194Z,74.91
2023-04-06T05:05:57.022Z,74.89
2023-04-06T05:08:26.847Z,74.53
2023-04-06T05:10:53.688Z,74.74
2023-04-06T05:13:21.179Z,75.43
2023-04-06T05:15:49.947Z,74.48
2023-04-06T05:18:26.786Z,76.90
2023-04-06T05:20:54.237Z,76.62
2023-04-06T05:23:27.515Z,78.33
2023-04-06T05:25:54.793Z,77.61
2023-04-06T05:28:23.900Z,78.55
2023-04-06T05:30:50.742Z,78.49
2023-04-06T05:33:17.775Z,77.79
2023-04-06T05:36:06.437Z,77.58
2023-04-06T05:38:34.478Z,77.28
2023-04-06T05:41:09.146Z,75.45
2023-04-06T05:43:36.366Z,75.11
2023-04-06T05:46:03.217Z,74.54
2023-04-06T05:48:29.987Z,73.44
2023-04-06T05:50:57.094Z,71.64
2023-04-06T05:53:30.633Z,70.93
2023-04-06T05:56:03.635Z,70.90
2023-04-06T05:58:30.947Z,70.87
2023-04-06T06:00:59.667Z,70.65
2023-04-06T06:03:28.562Z,69.68
2023-04-06T06:06:01.857Z,70.81
2023-04-06T06:08:35.783Z,70.03
2023-04-06T06:11:06.860Z,69.79
2023-04-06T06:13:33.564Z,69.08
2023-04-06T06:16:01.388Z,68.74
2023-04-06T06:18:28.200Z,68.06
2023-04-06T06:20:56.133Z,68.12
2023-04-06T06:23:22.842Z,67.62
2023-04-06T06:25:49.856Z,68.63
2023-04-06T06:28:17.446Z,67.37
2023-04-06T06:30:44.237Z,65.06
2023-04-06T06:33:11.251Z,63.90
2023-04-06T06:35:38.438Z,62.94
2023-04-06T06:38:06.366Z,62.60
2023-04-06T06:40:34.670Z,62.24
2023-04-06T06:43:01.749Z,61.89
2023-04-06T06:45:34.395Z,61.48
2023-04-06T06:48:02.412Z,60.82
2023-04-06T06:50:29.086Z,61.52
2023-04-06T06:52:55.860Z,61.01
2023-04-06T06:55:22.558Z,60.53
2023-04-06T06:57:49.524Z,60.10
2023-04-06T07:00:16.664Z,59.51
2023-04-06T07:02:45.838Z,59.16
2023-04-06T07:05:24.282Z,58.32
2023-04-06T07:07:55.125Z,57.51
2023-04-06T07:10:21.888Z,56.94
2023-04-06T07:12:48.557Z,57.63
2023-04-06T07:15:15.412Z,57.35
2023-04-06T07:17:42.500Z,56.29
2023-04-06T07:20:10.084Z,55.72
2023-04-06T07:22:36.835Z,55.39
2023-04-06T07:25:03.702Z,54.84
2023-04-06T07:27:30.408Z,55.97
2023-04-06T07:29:57.198Z,55.83
2023-04-06T07:32:25.498Z,55.09
2023-04-06T07:34:52.346Z,54.99
2023-04-06T07:37:19.440Z,54.81
2023-04-06T07:39:48.195Z,53.02
2023-04-06T07:42:15.353Z,53.50
2023-04-06T07:44:43.250Z,53.10
2023-04-06T07:47:11.759Z,53.24
2023-04-06T07:49:38.417Z,52.73
2023-04-06T07:52:06.322Z,52.99
2023-04-06T07:54:33.762Z,52.13
2023-04-06T07:57:00.646Z,53.24
2023-04-06T07:59:27.341Z,51.71
2023-04-06T08:01:54.019Z,51.65
2023-04-06T08:04:21.341Z,51.75
2023-04-06T08:06:48.094Z,50.73
2023-04-06T08:09:14.713Z,51.16
2023-04-06T08:11:41.599Z,51.06
2023-04-06T08:14:08.611Z,49.92
2023-04-06T08:16:35.720Z,50.13
2023-04-06T08:19:02.339Z,50.49
2023-04-06T08:21:28.982Z,50.23
2023-04-06T08:23:55.610Z,49.36
2023-04-06T08:26:22.252Z,49.53
2023-04-06T08:28:48.920Z,48.81
2023-04-06T08:31:15.659Z,48.83
2023-04-06T08:33:42.434Z,48.57
2023-04-06T08:36:13.756Z,48.39
2023-04-06T08:38:41.884Z,48.95
2023-04-06T08:41:12.824Z,48.29
2023-04-06T08:43:50.963Z,48.28
2023-04-06T08:46:19.716Z,48.73
2023-04-06T08:48:49.717Z,48.34
2023-04-06T08:51:17.021Z,47.35
2023-04-06T08:53:43.617Z,48.58
2023-04-06T08:56:11.639Z,46.92
2023-04-06T08:58:40.651Z,46.55
2023-04-06T09:01:12.202Z,46.97
2023-04-06T09:03:42.052Z,46.68
2023-04-06T09:06:10.003Z,46.50
2023-04-06T09:08:39.840Z,45.95
2023-04-06T09:11:06.654Z,46.45
2023-04-06T09:13:45.722Z,46.33
2023-04-06T09:18:39.024Z,46.10
2023-04-06T09:21:07.747Z,46.25
2023-04-06T09:23:35.295Z,44.91
2023-04-06T09:26:08.311Z,44.99
2023-04-06T09:28:58.203Z,45.24
2023-04-06T09:31:30.588Z,45.05
2023-04-06T09:33:58.082Z,44.43
2023-04-06T09:36:39.318Z,44.50
2023-04-06T09:39:06.274Z,44.84
2023-04-06T09:41:36.672Z,45.35
2023-04-06T09:44:11.454Z,43.71
2023-04-06T09:46:58.604Z,44.27
2023-04-06T09:49:28.853Z,44.51
2023-04-06T09:52:02.662Z,43.78
2023-04-06T09:54:31.288Z,44.27
2023-04-06T09:57:26.836Z,44.96
2023-04-06T10:00:15.144Z,42.86
2023-04-06T10:03:09.823Z,44.49
2023-04-06T10:05:53.238Z,43.25
2023-04-06T10:08:21.934Z,43.64
2023-04-06T10:10:48.978Z,44.00
2023-04-06T10:13:16.202Z,43.46
2023-04-06T10:15:43.859Z,43.49
2023-04-06T10:18:10.810Z,44.15
2023-04-06T10:20:58.513Z,42.91
2023-04-06T10:23:34.461Z,42.41
2023-04-06T10:26:02.537Z,43.94
2023-04-06T10:28:37.208Z,43.02
2023-04-06T10:31:07.453Z,41.14
2023-04-06T10:33:34.710Z,43.09
2023-04-06T10:36:15.646Z,42.13
2023-04-06T10:38:43.478Z,43.30
2023-04-06T10:41:12.355Z,42.73
2023-04-06T10:43:41.135Z,41.73
2023-04-06T10:46:09.679Z,41.85
2023-04-06T10:48:46.334Z,42.35
2023-04-06T10:51:21.387Z,40.68
2023-04-06T10:53:49.913Z,40.17
2023-04-06T10:56:18.352Z,40.51
2023-04-06T10:58:49.805Z,39.71
2023-04-06T11:01:18.046Z,40.68
2023-04-06T11:03:52.585Z,40.97
2023-04-06T11:06:31.727Z,38.87
2023-04-06T11:08:59.342Z,39.12
2023-04-06T11:11:27.656Z,37.11
2023-04-06T11:13:57.250Z,38.01
2023-04-06T11:16:24.914Z,37.41
2023-04-06T11:18:57.237Z,38.09
2023-04-06T11:21:33.420Z,37.08
2023-04-06T11:24:14.383Z,36.45
2023-04-06T11:26:49.481Z,37.00
2023-04-06T11:29:18.959Z,37.48
2023-04-06T11:32:05.531Z,38.39
2023-04-06T11:34:36.419Z,36.36
2023-04-06T11:37:12.872Z,36.73
2023-04-06T11:39:51.636Z,35.38
2023-04-06T11:42:25.302Z,36.96
2023-04-06T11:45:03.435Z,35.65
2023-04-06T11:47:37.532Z,35.25
2023-04-06T11:50:09.328Z,35.58
2023-04-06T11:52:36.116Z,34.09
2023-04-06T11:55:14.035Z,34.02
2023-04-06T11:57:41.529Z,36.49
2023-04-06T12:00:10.464Z,32.93
2023-04-06T12:02:38.642Z,32.23
2023-04-06T12:05:08.871Z,35.15
2023-04-06T12:07:36.232Z,33.90
2023-04-06T12:10:04.394Z,34.03
2023-04-06T12:12:31.163Z,32.69
2023-04-06T12:14:58.076Z,32.23
2023-04-06T12:17:27.293Z,33.56
2023-04-06T12:19:54.153Z,34.10
2023-04-06T12:22:20.896Z,31.70
2023-04-06T12:24:47.770Z,32.57
2023-04-06T12:27:14.710Z,33.88
2023-04-06T12:29:41.573Z,33.78
2023-04-06T12:32:14.170Z,33.21
2023-04-06T12:34:40.991Z,33.11
2023-04-06T12:37:07.713Z,31.84
2023-04-06T12:39:34.426Z,31.65
2023-04-06T12:42:02.452Z,32.53
2023-04-06T12:44:29.828Z,32.11
2023-04-06T12:46:57.290Z,32.64
2023-04-06T12:49:24.029Z,33.84
2023-04-06T12:51:51.751Z,33.59
2023-04-06T12:54:18.462Z,33.06
2023-04-06T12:56:45.151Z,33.60
2023-04-06T12:59:12.395Z,32.52
2023-04-06T13:01:39.057Z,30.81
2023-04-06T13:04:05.678Z,32.73
2023-04-06T13:06:32.344Z,31.56
2023-04-06T13:08:59.078Z,32.31
2023-04-06T13:11:28.653Z,32.91
2023-04-06T13:13:55.913Z,31.85
2023-04-06T13:16:22.882Z,31.17
2023-04-06T13:18:49.752Z,31.55
2023-04-06T13:21:17.779Z,32.09
2023-04-06T13:23:45.053Z,31.23
2023-04-06T13:26:14.409Z,31.50
2023-04-06T13:28:41.534Z,32.63
2023-04-06T13:31:09.476Z,32.96
2023-04-06T13:33:36.781Z,33.63
2023-04-06T13:36:03.796Z,33.66
2023-04-06T13:38:30.950Z,32.13
2023-04-06T13:40:57.635Z,32.95
2023-04-06T13:43:27.071Z,33.97
2023-04-06T13:45:56.063Z,32.31
2023-04-06T13:48:23.323Z,32.04
2023-04-06T13:50:50.172Z,32.88
2023-04-06T13:53:16.806Z,33.04
2023-04-06T13:55:43.424Z,32.22
2023-04-06T13:58:10.287Z,31.29
2023-04-06T14:00:37.943Z,32.68
2023-04-06T14:03:05.113Z,31.61
2023-04-06T14:05:33.136Z,32.71
2023-04-06T14:07:59.804Z,31.35
2023-04-06T14:10:28.436Z,30.87
2023-04-06T14:12:55.472Z,31.60
2023-04-06T14:15:22.942Z,31.29
2023-04-06T14:17:50.075Z,31.64
2023-04-06T14:20:17.025Z,31.35
2023-04-06T14:22:43.961Z,32.24
2023-04-06T14:25:12.224Z,31.70
2023-04-06T14:27:39.672Z,30.36
2023-04-06T14:30:07.127Z,31.13
2023-04-06T14:32:33.969Z,31.91
2023-04-06T14:35:00.908Z,31.19
2023-04-06T14:37:27.938Z,32.47
2023-04-06T14:39:54.701Z,31.59
2023-04-06T14:42:21.387Z,31.70
2023-04-06T14:44:49.640Z,31.84
2023-04-06T14:47:21.427Z,31.84
2023-04-06T14:49:51.533Z,33.29
2023-04-06T14:52:18.430Z,32.79
2023-04-06T14:54:45.238Z,32.14
2023-04-06T14:57:17.404Z,32.06
2023-04-06T14:59:43.943Z,32.47
2023-04-06T15:02:10.783Z,32.93
2023-04-06T15:04:37.633Z,33.63
2023-04-06T15:07:04.565Z,33.07
2023-04-06T15:09:31.712Z,33.94
2023-04-06T15:11:58.430Z,33.83
2023-04-06T15:14:25.292Z,34.24
2023-04-06T15:16:51.829Z,33.47
2023-04-06T15:19:18.491Z,34.36
2023-04-06T15:21:45.036Z,35.37
2023-04-06T15:24:11.774Z,35.74
2023-04-06T15:26:38.477Z,35.19
2023-04-06T15:29:05.237Z,34.16
2023-04-06T15:31:37.654Z,34.83
2023-04-06T15:34:08.764Z,34.26
2023-04-06T15:36:36.324Z,34.86
2023-04-06T15:39:04.138Z,35.05
2023-04-06T15:41:30.783Z,35.19
2023-04-06T15:43:57.593Z,35.86
2023-04-06T15:46:24.441Z,35.78
2023-04-06T15:48:51.057Z,36.20
2023-04-06T15:51:18.005Z,36.46
2023-04-06T15:53:45.428Z,37.07
2023-04-06T15:56:14.466Z,36.44
2023-04-06T15:58:42.166Z,36.57
2023-04-06T16:01:16.934Z,37.72
2023-04-06T16:03:44.807Z,37.22
2023-04-06T16:06:11.637Z,37.16
2023-04-06T16:08:39.775Z,37.29
2023-04-06T16:11:06.432Z,37.35
2023-04-06T16:13:33.363Z,37.21
2023-04-06T16:16:00.165Z,37.16
2023-04-06T16:18:27.281Z,37.01
2023-04-06T16:20:54.082Z,37.67
2023-04-06T16:23:20.775Z,37.64
2023-04-06T16:25:47.393Z,37.55
2023-04-06T16:28:14.102Z,39.13
2023-04-06T16:30:42.488Z,41.17
2023-04-06T16:33:11.546Z,41.83
2023-04-06T16:35:48.105Z,42.40
2023-04-06T16:38:15.949Z,42.77
2023-04-06T16:40:42.650Z,42.64
2023-04-06T16:43:10.067Z,42.61
2023-04-06T16:45:38.075Z,42.37
2023-04-06T16:48:04.957Z,42.85
2023-04-06T16:50:31.578Z,43.23
2023-04-06T16:52:58.639Z,43.30
2023-04-06T16:55:25.403Z,43.60
2023-04-06T16:57:55.882Z,44.90
2023-04-06T17:00:22.654Z,44.72
2023-04-06T17:02:49.376Z,44.35
2023-04-06T17:05:18.146Z,43.92
2023-04-06T17:07:44.763Z,44.20
2023-04-06T17:10:11.410Z,44.12
2023-04-06T17:12:38.013Z,44.47
2023-04-06T17:15:04.968Z,43.92
2023-04-06T17:17:31.575Z,44.42
2023-04-06T17:19:58.262Z,44.55
2023-04-06T17:22:24.894Z,44.74
2023-04-06T17:24:51.451Z,44.58
2023-04-06T17:27:18.843Z,44.27
2023-04-06T17:29:45.434Z,44.05
2023-04-06T17:32:12.241Z,44.16
2023-04-06T17:34:38.946Z,44.17
2023-04-06T17:37:05.846Z,44.47
2023-04-06T17:39:32.851Z,45.00
2023-04-06T17:42:00.092Z,44.30
2023-04-06T17:44:27.006Z,44.33
2023-04-06T17:46:53.714Z,44.56
2023-04-06T17:49:20.419Z,44.55
2023-04-06T17:51:47.091Z,44.40
2023-04-06T17:54:13.844Z,44.77
2023-04-06T17:56:40.891Z,44.96
2023-04-06T17:59:10.497Z,44.82
2023-04-06T18:01:40.509Z,44.94
2023-04-06T18:04:07.376Z,46.17
2023-04-06T18:06:34.000Z,45.94
2023-04-06T18:09:01.043Z,46.36
2023-04-06T18:11:30.925Z,46.89
2023-04-06T18:13:58.261Z,46.90
2023-04-06T18:16:25.349Z,47.42
2023-04-06T18:18:52.136Z,48.03
2023-04-06T18:21:18.991Z,48.63
2023-04-06T18:23:46.528Z,49.62
2023-04-06T18:26:18.348Z,49.97
2023-04-06T18:28:45.797Z,50.49
2023-04-06T18:31:12.534Z,51.02
2023-04-06T18:33:39.290Z,52.17
2023-04-06T18:36:06.438Z,52.40
2023-04-06T18:38:33.091Z,53.34
2023-04-06T18:40:59.718Z,54.24
2023-04-06T18:43:26.385Z,56.22
2023-04-06T18:45:52.964Z,59.85
2023-04-06T18:48:19.737Z,62.88
2023-04-06T18:50:54.195Z,62.25
2023-04-06T18:53:21.229Z,62.91
2023-04-06T18:55:47.857Z,64.42
2023-04-06T18:58:14.447Z,65.16
2023-04-06T19:00:41.977Z,68.16
2023-04-06T19:03:08.847Z,67.12
2023-04-06T19:05:36.118Z,67.75
2023-04-06T19:08:02.746Z,67.98
2023-04-06T19:10:29.637Z,69.09
2023-04-06T19:12:57.838Z,67.93
2023-04-06T19:15:24.646Z,69.85
2023-04-06T19:17:51.378Z,70.01
2023-04-06T19:20:18.094Z,70.25
2023-04-06T19:22:44.940Z,71.98
2023-04-06T19:25:12.084Z,72.69
2023-04-06T19:27:39.391Z,75.08
2023-04-06T19:30:06.772Z,76.98
2023-04-06T19:32:33.483Z,76.37
2023-04-06T19:35:01.508Z,76.99
2023-04-06T19:37:28.192Z,79.03
2023-04-06T19:39:54.818Z,77.26
2023-04-06T19:42:21.820Z,77.57
2023-04-06T19:44:48.640Z,78.19
2023-04-06T19:47:15.390Z,79.14
2023-04-06T19:49:42.123Z,79.29
2023-04-06T19:52:10.065Z,80.32
2023-04-06T19:54:38.183Z,80.13
2023-04-06T19:57:04.964Z,79.04
2023-04-06T19:59:31.842Z,78.42
2023-04-06T20:01:58.516Z,78.12
2023-04-06T20:04:25.927Z,79.30
2023-04-06T20:06:53.638Z,80.69
2023-04-06T20:09:21.719Z,80.46
2023-04-06T20:11:48.303Z,82.29
2023-04-06T20:14:15.873Z,82.78
2023-04-06T20:16:42.613Z,82.34
2023-04-06T20:19:09.293Z,82.35
2023-04-06T20:21:37.369Z,83.70
2023-04-06T20:24:05.285Z,84.25
2023-04-06T20:26:31.921Z,85.23
2023-04-06T20:28:58.509Z,84.84
2023-04-06T20:31:28.920Z,85.60
2023-04-06T20:33:56.015Z,86.32
2023-04-06T20:36:22.561Z,87.90
2023-04-06T20:38:49.179Z,89.01
2023-04-06T20:41:16.330Z,88.60
2023-04-06T20:43:43.041Z,88.70
2023-04-06T20:46:16.113Z,88.28
2023-04-06T20:48:42.699Z,89.19
2023-04-06T20:51:18.152Z,88.07
2023-04-06T20:53:45.015Z,88.28
2023-04-06T20:56:11.647Z,88.17
2023-04-06T20:58:38.240Z,88.29
2023-04-06T21:01:04.853Z,87.05
2023-04-06T21:03:31.665Z,88.15
2023-04-06T21:05:58.919Z,88.73
2023-04-06T21:08:25.902Z,90.44
2023-04-06T21:10:52.517Z,90.23
2023-04-06T21:13:19.139Z,89.41
2023-04-06T21:15:45.712Z,89.77
2023-04-06T21:18:12.518Z,90.35
2023-04-06T21:20:40.003Z,88.93
2023-04-06T21:23:06.731Z,89.39
2023-04-06T21:25:35.991Z,89.94
2023-04-06T21:28:02.748Z,89.01
2023-04-06T21:30:29.452Z,89.17
2023-04-06T21:32:56.038Z,88.64
2023-04-06T21:35:22.675Z,89.53
2023-04-06T21:37:49.241Z,90.77
2023-04-06T21:40:15.917Z,91.27
2023-04-06T21:42:42.488Z,91.34
2023-04-06T21:45:09.351Z,92.09
2023-04-06T21:47:36.216Z,92.19
2023-04-06T21:50:04.134Z,93.42
2023-04-06T21:52:30.717Z,95.20
2023-04-06T21:54:57.560Z,94.29
2023-04-06T21:57:24.139Z,92.83
2023-04-06T21:59:50.823Z,92.78
2023-04-06T22:02:17.493Z,92.79
2023-04-06T22:04:44.327Z,92.88
2023-04-06T22:07:11.308Z,94.33
2023-04-06T22:09:37.879Z,94.57
2023-04-06T22:12:04.525Z,95.33
2023-04-06T22:14:31.538Z,95.18
2023-04-06T22:16:58.058Z,94.29
2023-04-06T22:19:24.737Z,95.90
2023-04-06T22:21:57.530Z,95.95
2023-04-06T22:24:24.069Z,97.05
2023-04-06T22:26:50.812Z,97.31
2023-04-06T22:29:17.410Z,96.14
2023-04-06T22:31:46.688Z,97.16
2023-04-06T22:34:13.737Z,96.60
2023-04-06T22:36:40.336Z,96.45
2023-04-06T22:39:06.912Z,96.90
2023-04-06T22:41:33.627Z,97.92
2023-04-06T22:44:00.421Z,98.20
2023-04-06T22:46:27.061Z,99.09
2023-04-06T22:48:53.663Z,97.87
2023-04-06T22:51:20.653Z,98.21
2023-04-06T22:53:47.175Z,97.92
2023-04-06T22:56:13.675Z,98.51
2023-04-06T22:58:40.241Z,99.21
2023-04-06T23:01:07.572Z,99.33
2023-04-06T23:03:34.241Z,100.00
2023-04-06T23:06:00.846Z,100.00
2023-04-06T23:08:27.441Z,100.00
2023-04-06T23:10:54.004Z,100.00
2023-04-06T23:13:20.606Z,100.00
2023-04-06T23:15:47.161Z,100.00
2023-04-06T23:18:13.702Z,100.00
2023-04-06T23:20:40.396Z,100.00
2023-04-06T23:23:06.980Z,100.00
2023-04-06T23:25:33.535Z,100.00
2023-04-06T23:28:00.122Z,100.00
2023-04-06T23:30:26.963Z,100.00
2023-04-06T23:32:53.587Z,100.00
2023-04-06T23:35:20.126Z,100.00
2023-04-06T23:37:46.636Z,100.00
2023-04-06T23:40:13.165Z,100.00
2023-04-06T23:42:39.746Z,100.00
2023-04-06T23:45:07.032Z,100.00
2023-04-06T23:47:33.697Z,100.00
2023-04-06T23:50:00.444Z,100.00
2023-04-06T23:52:29.668Z,100.00
2023-04-06T23:54:56.275Z,100.00
2023-04-06T23:57:22.877Z,100.00
2023-04-06T23:59:49.503Z,100.00
